Aviation Digital Data Service (ADDS)

Output produced by METARs form (2150 UTC 19 February 2018)
found at http://www.aviationweather.gov/adds/metars/
 
NZAA 192130Z AUTO 01020G31KT 9999 SCT021/// 24/21 Q1005 NOSIG
TAF NZAA 191718Z 1918/2018 02012KT 9999 -SHRA FEW012 BKN020 
     BECMG 1918/1920 02015G25KT 
     TEMPO 1918/1920 BKN014 
     BECMG 1922/2000 02020G35KT 
     TEMPO 2004/2008 4000 RA FEW020TCU 
     BECMG 2006/2008 34015KT
       
NZCH 192130Z AUTO 17002KT 9000 -RA SCT006/// BKN041/// BKN048/// 13/12 Q1010 TEMPO 3000 RADZ BKN012
TAF NZCH 191710Z 1918/2018 06012KT 9999 -RA SCT012 BKN020 
     TEMPO 1918/2018 4000 RA BKN014 
     BECMG 1922/2000 18015G25KT 
     PROB30 
     TEMPO 2000/2010 2500 +RA BKN009
       
TAF AMD NZQN 192009Z 1919/2012 04010KT 9999 -RA BKN030 
     BECMG 1922/2000 17015G25KT 
     BECMG 2000/2002 17025G40KT 
     TEMPO 2002/2006 6000 RA 
     TEMPO 2006/2012 4000 RA BKN014 
     BECMG 2010/2012 18012KT
       
NZWN 192130Z AUTO 17012KT 5000 RA BR FEW004/// BKN023/// 18/17 Q1003 TEMPO 3000 +RA BKN010 FEW020TCU
TAF NZWN 191718Z 1918/2018 18010KT 6000 RADZ SCT006 BKN010 
     BECMG 1918/1920 16015G25KT 
     TEMPO 1918/2002 3000 +RA BKN009 FEW020TCU 
     FM200200 16015G25KT 9999 -RA SCT020 BKN040 
     BECMG 2005/2007 36030G55KT 
     TEMPO 2010/2014 7000 RA